VIR198S TBPB-EGLL
Flight info
| Callsign | VIR198S |
|---|---|
| Flight time | 2h 13m |
| Altitude | 35000 |
| Route | DCT FISST/M085F350 DCT 19N055W 23N050W/M085F370 26N045W 29N040W 35N030W DCT GINSU DCT 41N020W/M085F390 DCT GONAN DCT ETIKI DCT REGHI/N0490F390 DCT AMPOP DCT SIDDI DCT DAWLY DCT ELRIP DCT OTMET OTMET1H |
| Aircraft | A35K/H-SDE2E3GHIJ3J4J5LM1ORWXY/LB1D1 |
Departure
| Time | 2026-05-07 11:14 |
|---|---|
| Airport | Grantley Adams International Airport (TBPB) |
Arrival
| Time | 2026-05-07 13:27 |
|---|---|
| Airport | London Heathrow Airport (EGLL) |
| Time | Latitude | Longitude | Altitude | Speed | Heading |
|---|---|---|---|---|---|
| 2026-05-07 10:50 | 13.07888 | -59.48686 | 182 ft | 0 kts | 348° |
| 2026-05-07 11:02 | 13.07868 | -59.48681 | 173 ft | 4 kts | 344° |
| 2026-05-07 11:03 | 13.07844 | -59.48674 | 182 ft | 2 kts | 348° |
| 2026-05-07 11:03 | 13.07822 | -59.48667 | 181 ft | 4 kts | 325° |
| 2026-05-07 11:03 | 13.07806 | -59.48648 | 181 ft | 4 kts | 283° |
| 2026-05-07 11:03 | 13.07805 | -59.48621 | 181 ft | 4 kts | 258° |
| 2026-05-07 11:04 | 13.07807 | -59.48612 | 181 ft | 0 kts | 256° |
| 2026-05-07 11:06 | 13.07806 | -59.48613 | 181 ft | 1 kts | 256° |
| 2026-05-07 11:06 | 13.07804 | -59.48623 | 181 ft | 2 kts | 257° |
| 2026-05-07 11:07 | 13.07800 | -59.48644 | 181 ft | 4 kts | 257° |
| 2026-05-07 11:07 | 13.07792 | -59.48674 | 181 ft | 5 kts | 256° |
| 2026-05-07 11:07 | 13.07781 | -59.48714 | 181 ft | 6 kts | 251° |
| 2026-05-07 11:07 | 13.07754 | -59.48754 | 181 ft | 7 kts | 231° |
| 2026-05-07 11:08 | 13.07734 | -59.48803 | 181 ft | 8 kts | 250° |
| 2026-05-07 11:08 | 13.07718 | -59.48861 | 182 ft | 9 kts | 256° |
| 2026-05-07 11:08 | 13.07701 | -59.48926 | 182 ft | 10 kts | 255° |
| 2026-05-07 11:08 | 13.07684 | -59.48998 | 182 ft | 11 kts | 255° |
| 2026-05-07 11:09 | 13.07664 | -59.49077 | 182 ft | 12 kts | 256° |
| 2026-05-07 11:09 | 13.07642 | -59.49165 | 182 ft | 13 kts | 255° |
| 2026-05-07 11:09 | 13.07619 | -59.49258 | 182 ft | 14 kts | 256° |
| 2026-05-07 11:09 | 13.07595 | -59.49358 | 182 ft | 15 kts | 256° |
| 2026-05-07 11:10 | 13.07569 | -59.49468 | 182 ft | 16 kts | 256° |
| 2026-05-07 11:10 | 13.07541 | -59.49583 | 182 ft | 17 kts | 254° |
| 2026-05-07 11:10 | 13.07509 | -59.49701 | 182 ft | 18 kts | 255° |
| 2026-05-07 11:10 | 13.07479 | -59.49826 | 182 ft | 18 kts | 256° |
| 2026-05-07 11:11 | 13.07448 | -59.49956 | 182 ft | 19 kts | 256° |
| 2026-05-07 11:11 | 13.07416 | -59.50091 | 182 ft | 20 kts | 256° |
| 2026-05-07 11:11 | 13.07384 | -59.50231 | 182 ft | 20 kts | 256° |
| 2026-05-07 11:11 | 13.07349 | -59.50372 | 182 ft | 21 kts | 252° |
| 2026-05-07 11:12 | 13.07310 | -59.50516 | 182 ft | 21 kts | 256° |
| 2026-05-07 11:12 | 13.07274 | -59.50665 | 182 ft | 22 kts | 254° |
| 2026-05-07 11:12 | 13.07183 | -59.50720 | 182 ft | 15 kts | 165° |
| 2026-05-07 11:12 | 13.07107 | -59.50665 | 183 ft | 13 kts | 95° |
| 2026-05-07 11:13 | 13.07114 | -59.50632 | 183 ft | 0 kts | 75° |
| 2026-05-07 11:13 | 13.07114 | -59.50629 | 183 ft | 3 kts | 75° |
| 2026-05-07 11:13 | 13.07163 | -59.50418 | 184 ft | 68 kts | 76° |
| 2026-05-07 11:14 | 13.07348 | -59.49673 | 181 ft | 145 kts | 75° |
| 2026-05-07 11:14 | 13.07667 | -59.48487 | 483 ft | 183 kts | 73° |
| 2026-05-07 11:14 | 13.08033 | -59.47250 | 1485 ft | 181 kts | 67° |
| 2026-05-07 11:14 | 13.08826 | -59.46278 | 2000 ft | 187 kts | 40° |
| 2026-05-07 11:15 | 13.09958 | -59.45494 | 2242 ft | 206 kts | 32° |
| 2026-05-07 11:15 | 13.11281 | -59.44744 | 2430 ft | 226 kts | 30° |
| 2026-05-07 11:15 | 13.12717 | -59.43944 | 2659 ft | 244 kts | 30° |
| 2026-05-07 11:15 | 13.14220 | -59.43055 | 3121 ft | 252 kts | 32° |
| 2026-05-07 11:16 | 13.15701 | -59.42120 | 3763 ft | 253 kts | 33° |
| 2026-05-07 11:16 | 13.17189 | -59.41136 | 4397 ft | 254 kts | 34° |
| 2026-05-07 11:16 | 13.18679 | -59.40121 | 4989 ft | 258 kts | 34° |
| 2026-05-07 11:16 | 13.20167 | -59.39093 | 5523 ft | 262 kts | 34° |
| 2026-05-07 11:17 | 13.21677 | -59.38046 | 6185 ft | 262 kts | 34° |
| 2026-05-07 11:17 | 13.23209 | -59.36983 | 6699 ft | 268 kts | 34° |
| 2026-05-07 11:17 | 13.24773 | -59.35901 | 7241 ft | 272 kts | 34° |
| 2026-05-07 11:17 | 13.26346 | -59.34817 | 7873 ft | 273 kts | 34° |
| 2026-05-07 11:18 | 13.27943 | -59.33717 | 8444 ft | 278 kts | 33° |
| 2026-05-07 11:18 | 13.29533 | -59.32622 | 9132 ft | 278 kts | 34° |
| 2026-05-07 11:18 | 13.31154 | -59.31506 | 9743 ft | 282 kts | 34° |
| 2026-05-07 11:18 | 13.32799 | -59.30373 | 10277 ft | 288 kts | 33° |
| 2026-05-07 11:19 | 13.34508 | -59.29198 | 10560 ft | 303 kts | 33° |
| 2026-05-07 11:19 | 13.36306 | -59.27961 | 10795 ft | 318 kts | 33° |
| 2026-05-07 11:19 | 13.39396 | -59.25836 | 11150 ft | 342 kts | 33° |
| 2026-05-07 11:19 | 13.47767 | -59.20068 | 12083 ft | 383 kts | 33° |
| 2026-05-07 11:20 | 13.56737 | -59.13880 | 13884 ft | 392 kts | 33° |
| 2026-05-07 11:20 | 13.65959 | -59.07514 | 15217 ft | 406 kts | 32° |
| 2026-05-07 11:20 | 13.75518 | -59.00910 | 16437 ft | 422 kts | 32° |
| 2026-05-07 11:20 | 13.85480 | -58.94020 | 17616 ft | 438 kts | 32° |
| 2026-05-07 11:21 | 13.95764 | -58.86896 | 18760 ft | 450 kts | 32° |
| 2026-05-07 11:21 | 14.06152 | -58.79692 | 19876 ft | 459 kts | 32° |
| 2026-05-07 11:21 | 14.16859 | -58.72260 | 20975 ft | 468 kts | 33° |
| 2026-05-07 11:21 | 14.27799 | -58.64657 | 22107 ft | 477 kts | 33° |
| 2026-05-07 11:22 | 14.38942 | -58.56903 | 23234 ft | 486 kts | 33° |
| 2026-05-07 11:22 | 14.50265 | -58.49015 | 24179 ft | 495 kts | 33° |
| 2026-05-07 11:22 | 14.61689 | -58.41048 | 25165 ft | 503 kts | 33° |
| 2026-05-07 11:22 | 14.73442 | -58.32839 | 26252 ft | 512 kts | 33° |
| 2026-05-07 11:23 | 14.85357 | -58.24507 | 27395 ft | 521 kts | 33° |
| 2026-05-07 11:23 | 14.97340 | -58.16115 | 28493 ft | 530 kts | 33° |
| 2026-05-07 11:23 | 15.09617 | -58.07505 | 29776 ft | 532 kts | 33° |
| 2026-05-07 11:23 | 15.21932 | -57.98857 | 30845 ft | 534 kts | 32° |
| 2026-05-07 11:24 | 15.34269 | -57.90181 | 31792 ft | 535 kts | 32° |
| 2026-05-07 11:24 | 15.46639 | -57.81469 | 32634 ft | 538 kts | 32° |
| 2026-05-07 11:24 | 15.59028 | -57.72730 | 33447 ft | 539 kts | 32° |
| 2026-05-07 11:24 | 15.71341 | -57.64033 | 34175 ft | 540 kts | 32° |
| 2026-05-07 11:25 | 15.83814 | -57.55208 | 34859 ft | 539 kts | 32° |
| 2026-05-07 11:25 | 15.96303 | -57.46361 | 35090 ft | 545 kts | 32° |
| 2026-05-07 11:25 | 16.21371 | -57.28557 | 35094 ft | 545 kts | 32° |
| 2026-05-07 11:26 | 16.46338 | -57.10771 | 35093 ft | 546 kts | 32° |
| 2026-05-07 11:26 | 16.71225 | -56.92985 | 35101 ft | 545 kts | 32° |
| 2026-05-07 11:27 | 16.96279 | -56.75022 | 35101 ft | 544 kts | 32° |
| 2026-05-07 11:27 | 17.21250 | -56.57060 | 35100 ft | 544 kts | 32° |
| 2026-05-07 11:28 | 17.46178 | -56.39068 | 35105 ft | 543 kts | 32° |
| 2026-05-07 11:28 | 17.70923 | -56.21149 | 35105 ft | 542 kts | 32° |
| 2026-05-07 11:29 | 17.95675 | -56.03162 | 35105 ft | 542 kts | 33° |
| 2026-05-07 11:29 | 18.18257 | -55.81893 | 35105 ft | 544 kts | 42° |
| 2026-05-07 11:30 | 18.40130 | -55.60088 | 35110 ft | 543 kts | 42° |
| 2026-05-07 11:30 | 18.62080 | -55.38135 | 35110 ft | 543 kts | 42° |
| 2026-05-07 11:31 | 18.83935 | -55.16196 | 35113 ft | 542 kts | 43° |
| 2026-05-07 11:31 | 19.05500 | -54.93864 | 35113 ft | 542 kts | 49° |
| 2026-05-07 11:32 | 19.35208 | -54.57731 | 35116 ft | 542 kts | 48° |
| 2026-05-07 11:33 | 19.54958 | -54.33880 | 35113 ft | 541 kts | 48° |
| 2026-05-07 11:33 | 19.74789 | -54.09834 | 35119 ft | 540 kts | 49° |
| 2026-05-07 11:34 | 19.94574 | -53.85745 | 35121 ft | 539 kts | 49° |
| 2026-05-07 11:34 | 20.14207 | -53.61741 | 35123 ft | 539 kts | 49° |
| 2026-05-07 11:35 | 20.33887 | -53.37580 | 35119 ft | 539 kts | 49° |
| 2026-05-07 11:35 | 20.53395 | -53.13528 | 35122 ft | 538 kts | 49° |
| 2026-05-07 11:36 | 20.72999 | -52.89255 | 35121 ft | 537 kts | 49° |
| 2026-05-07 11:36 | 20.92509 | -52.64993 | 35121 ft | 537 kts | 49° |
| 2026-05-07 11:37 | 21.11853 | -52.40834 | 35128 ft | 537 kts | 49° |
| 2026-05-07 11:37 | 21.31346 | -52.16380 | 35127 ft | 537 kts | 50° |
| 2026-05-07 11:38 | 21.50644 | -51.92063 | 35130 ft | 537 kts | 50° |
| 2026-05-07 11:38 | 21.70030 | -51.67525 | 35136 ft | 538 kts | 50° |
| 2026-05-07 11:39 | 21.89335 | -51.42978 | 35133 ft | 538 kts | 50° |
| 2026-05-07 11:39 | 22.08701 | -51.18240 | 35136 ft | 539 kts | 50° |
| 2026-05-07 11:40 | 22.28020 | -50.93446 | 35138 ft | 539 kts | 50° |
| 2026-05-07 11:40 | 22.47193 | -50.68724 | 35139 ft | 539 kts | 50° |
| 2026-05-07 11:41 | 22.66465 | -50.43755 | 35142 ft | 539 kts | 50° |
| 2026-05-07 11:41 | 22.85690 | -50.18727 | 35133 ft | 539 kts | 50° |
| 2026-05-07 11:42 | 23.04208 | -49.93377 | 35144 ft | 539 kts | 56° |
| 2026-05-07 11:42 | 23.21072 | -49.66499 | 35149 ft | 538 kts | 56° |
| 2026-05-07 11:43 | 23.37914 | -49.39552 | 35152 ft | 537 kts | 56° |
| 2026-05-07 11:43 | 23.51860 | -49.17131 | 35152 ft | 537 kts | 57° |
| 2026-05-07 11:44 | 23.71302 | -48.85703 | 35151 ft | 537 kts | 57° |
| 2026-05-07 11:44 | 23.85314 | -48.62934 | 35150 ft | 538 kts | 57° |
| 2026-05-07 11:45 | 24.01876 | -48.35884 | 35157 ft | 536 kts | 57° |
| 2026-05-07 11:45 | 24.18445 | -48.08674 | 35158 ft | 536 kts | 57° |
| 2026-05-07 11:46 | 24.34859 | -47.81571 | 35162 ft | 537 kts | 57° |
| 2026-05-07 11:46 | 24.51346 | -47.54195 | 35167 ft | 536 kts | 57° |
| 2026-05-07 11:47 | 24.67785 | -47.26745 | 35168 ft | 536 kts | 57° |
| 2026-05-07 11:47 | 24.84075 | -46.99388 | 35167 ft | 536 kts | 57° |
| 2026-05-07 11:48 | 25.00413 | -46.71795 | 35182 ft | 537 kts | 57° |
| 2026-05-07 11:48 | 25.16665 | -46.44189 | 35182 ft | 537 kts | 58° |
| 2026-05-07 11:49 | 25.32921 | -46.16412 | 35179 ft | 538 kts | 58° |
| 2026-05-07 11:49 | 25.49018 | -45.88746 | 35181 ft | 536 kts | 58° |
| 2026-05-07 11:50 | 25.65157 | -45.60843 | 35184 ft | 537 kts | 58° |
| 2026-05-07 11:50 | 25.81161 | -45.33006 | 35199 ft | 536 kts | 58° |
| 2026-05-07 11:51 | 25.97186 | -45.04965 | 35198 ft | 538 kts | 58° |
| 2026-05-07 11:51 | 26.14182 | -44.77602 | 35200 ft | 538 kts | 54° |
| 2026-05-07 11:52 | 26.31377 | -44.50285 | 35196 ft | 538 kts | 54° |
| 2026-05-07 11:52 | 26.48551 | -44.22834 | 35203 ft | 539 kts | 54° |
| 2026-05-07 11:53 | 26.65582 | -43.95443 | 35205 ft | 539 kts | 54° |
| 2026-05-07 11:53 | 26.82642 | -43.67839 | 35210 ft | 538 kts | 54° |
| 2026-05-07 11:54 | 26.99591 | -43.40247 | 35212 ft | 540 kts | 54° |
| 2026-05-07 11:54 | 27.16569 | -43.12434 | 35218 ft | 539 kts | 54° |
| 2026-05-07 11:55 | 27.33500 | -42.84523 | 35221 ft | 539 kts | 54° |
| 2026-05-07 11:55 | 27.50311 | -42.56634 | 35227 ft | 539 kts | 53° |
| 2026-05-07 11:56 | 27.67144 | -42.28530 | 35222 ft | 539 kts | 53° |
| 2026-05-07 11:56 | 27.83934 | -42.00316 | 35230 ft | 539 kts | 53° |
| 2026-05-07 11:57 | 28.00497 | -41.72302 | 35236 ft | 538 kts | 53° |
| 2026-05-07 11:57 | 28.17130 | -41.43985 | 35236 ft | 539 kts | 53° |
| 2026-05-07 11:58 | 28.33692 | -41.15603 | 35239 ft | 538 kts | 53° |
| 2026-05-07 11:58 | 28.50077 | -40.87336 | 35235 ft | 538 kts | 53° |
| 2026-05-07 11:59 | 28.66533 | -40.58753 | 35256 ft | 537 kts | 53° |
| 2026-05-07 11:59 | 28.82895 | -40.30143 | 35250 ft | 538 kts | 53° |
| 2026-05-07 12:00 | 28.99067 | -40.01670 | 35264 ft | 537 kts | 53° |
| 2026-05-07 12:00 | 29.17192 | -39.74668 | 35255 ft | 533 kts | 47° |
| 2026-05-07 12:01 | 29.35203 | -39.47909 | 35262 ft | 532 kts | 47° |
| 2026-05-07 12:01 | 29.53210 | -39.20998 | 35256 ft | 530 kts | 47° |
| 2026-05-07 12:02 | 29.71099 | -38.94088 | 35260 ft | 530 kts | 47° |
| 2026-05-07 12:02 | 29.88997 | -38.66985 | 35260 ft | 530 kts | 48° |
| 2026-05-07 12:03 | 30.06744 | -38.39930 | 35262 ft | 530 kts | 47° |
| 2026-05-07 12:03 | 30.24533 | -38.12626 | 35260 ft | 530 kts | 47° |
| 2026-05-07 12:04 | 30.42107 | -37.85468 | 35260 ft | 529 kts | 47° |
| 2026-05-07 12:04 | 30.59630 | -37.58207 | 35260 ft | 528 kts | 47° |
| 2026-05-07 12:05 | 30.77254 | -37.30597 | 35263 ft | 530 kts | 47° |
| 2026-05-07 12:05 | 30.94656 | -37.03144 | 35262 ft | 529 kts | 47° |
| 2026-05-07 12:06 | 31.12057 | -36.75503 | 35274 ft | 527 kts | 47° |
| 2026-05-07 12:06 | 31.29432 | -36.47705 | 35266 ft | 528 kts | 47° |
| 2026-05-07 12:07 | 31.46633 | -36.19986 | 35257 ft | 528 kts | 47° |
| 2026-05-07 12:07 | 31.63858 | -35.92032 | 35264 ft | 528 kts | 47° |
| 2026-05-07 12:08 | 31.81027 | -35.63965 | 35268 ft | 527 kts | 47° |
| 2026-05-07 12:08 | 31.98035 | -35.35957 | 35267 ft | 527 kts | 47° |
| 2026-05-07 12:09 | 32.14933 | -35.07927 | 35266 ft | 526 kts | 47° |
| 2026-05-07 12:09 | 32.31837 | -34.79678 | 35265 ft | 526 kts | 47° |
| 2026-05-07 12:10 | 32.48650 | -34.51371 | 35266 ft | 526 kts | 47° |
| 2026-05-07 12:10 | 32.65431 | -34.22904 | 35265 ft | 525 kts | 47° |
| 2026-05-07 12:11 | 32.82151 | -33.94325 | 35265 ft | 524 kts | 47° |
| 2026-05-07 12:11 | 32.98634 | -33.65935 | 35266 ft | 524 kts | 48° |
| 2026-05-07 12:12 | 33.15144 | -33.37276 | 35254 ft | 522 kts | 47° |
| 2026-05-07 12:12 | 33.31549 | -33.08580 | 35258 ft | 521 kts | 47° |
| 2026-05-07 12:13 | 33.47727 | -32.80060 | 35269 ft | 520 kts | 47° |
| 2026-05-07 12:13 | 33.63917 | -32.51299 | 35244 ft | 520 kts | 47° |
| 2026-05-07 12:14 | 33.80075 | -32.22365 | 35236 ft | 520 kts | 47° |
| 2026-05-07 12:14 | 33.96159 | -31.93334 | 35224 ft | 521 kts | 47° |
| 2026-05-07 12:15 | 34.12085 | -31.64353 | 35219 ft | 521 kts | 47° |
| 2026-05-07 12:15 | 34.28071 | -31.35033 | 35209 ft | 522 kts | 47° |
| 2026-05-07 12:16 | 34.44003 | -31.05564 | 35200 ft | 522 kts | 46° |
| 2026-05-07 12:16 | 34.59840 | -30.76033 | 35190 ft | 522 kts | 46° |
| 2026-05-07 12:17 | 34.75567 | -30.46462 | 35178 ft | 521 kts | 46° |
| 2026-05-07 12:17 | 34.91125 | -30.16957 | 35167 ft | 518 kts | 46° |
| 2026-05-07 12:18 | 35.06904 | -29.87685 | 35153 ft | 511 kts | 43° |
| 2026-05-07 12:18 | 35.23153 | -29.59039 | 35152 ft | 512 kts | 43° |
| 2026-05-07 12:19 | 35.39199 | -29.30348 | 35129 ft | 511 kts | 44° |
| 2026-05-07 12:19 | 35.55112 | -29.01666 | 35113 ft | 511 kts | 45° |
| 2026-05-07 12:20 | 35.71072 | -28.72656 | 35081 ft | 510 kts | 45° |
| 2026-05-07 12:20 | 35.86947 | -28.43561 | 35083 ft | 509 kts | 46° |
| 2026-05-07 12:21 | 36.02592 | -28.14643 | 35069 ft | 509 kts | 46° |
| 2026-05-07 12:21 | 36.18280 | -27.85398 | 35058 ft | 509 kts | 46° |
| 2026-05-07 12:22 | 36.34617 | -27.56962 | 35037 ft | 498 kts | 39° |
| 2026-05-07 12:22 | 36.52504 | -27.30949 | 35045 ft | 498 kts | 39° |
| 2026-05-07 12:23 | 36.70466 | -27.04563 | 35009 ft | 497 kts | 39° |
| 2026-05-07 12:23 | 36.88332 | -26.78114 | 34995 ft | 498 kts | 39° |
| 2026-05-07 12:24 | 37.06025 | -26.51712 | 34976 ft | 499 kts | 39° |
| 2026-05-07 12:24 | 37.23832 | -26.24925 | 34984 ft | 501 kts | 40° |
| 2026-05-07 12:25 | 37.41680 | -25.97856 | 34938 ft | 502 kts | 40° |
| 2026-05-07 12:25 | 37.59523 | -25.70575 | 34943 ft | 505 kts | 40° |
| 2026-05-07 12:26 | 37.77241 | -25.43254 | 34923 ft | 505 kts | 41° |
| 2026-05-07 12:26 | 37.95020 | -25.15609 | 34883 ft | 506 kts | 41° |
| 2026-05-07 12:27 | 38.12807 | -24.87718 | 34870 ft | 508 kts | 42° |
| 2026-05-07 12:27 | 38.30488 | -24.59753 | 34853 ft | 512 kts | 43° |
| 2026-05-07 12:28 | 38.48272 | -24.31377 | 34848 ft | 513 kts | 43° |
| 2026-05-07 12:28 | 38.66076 | -24.02721 | 34842 ft | 518 kts | 45° |
| 2026-05-07 12:29 | 38.84001 | -23.73606 | 34837 ft | 519 kts | 45° |
| 2026-05-07 12:29 | 39.01823 | -23.44396 | 34823 ft | 522 kts | 46° |
| 2026-05-07 12:30 | 39.19676 | -23.14868 | 34822 ft | 522 kts | 47° |
| 2026-05-07 12:30 | 39.37488 | -22.85132 | 34815 ft | 522 kts | 49° |
| 2026-05-07 12:31 | 39.52137 | -22.60469 | 34819 ft | 522 kts | 50° |
| 2026-05-07 12:31 | 39.72667 | -22.25574 | 34810 ft | 521 kts | 51° |
| 2026-05-07 12:32 | 39.87274 | -22.00512 | 34812 ft | 521 kts | 51° |
| 2026-05-07 12:32 | 40.04744 | -21.70271 | 34809 ft | 521 kts | 52° |
| 2026-05-07 12:33 | 40.30706 | -21.24784 | 34824 ft | 519 kts | 53° |
| 2026-05-07 12:33 | 40.47922 | -20.94255 | 34832 ft | 518 kts | 54° |
| 2026-05-07 12:34 | 40.64862 | -20.63917 | 34839 ft | 516 kts | 54° |
| 2026-05-07 12:34 | 40.81779 | -20.33326 | 34844 ft | 513 kts | 56° |
| 2026-05-07 12:35 | 40.98521 | -20.02752 | 34854 ft | 511 kts | 56° |
| 2026-05-07 12:35 | 41.18186 | -19.75280 | 34855 ft | 513 kts | 47° |
| 2026-05-07 12:36 | 41.37995 | -19.48100 | 34865 ft | 513 kts | 47° |
| 2026-05-07 12:36 | 41.57776 | -19.20696 | 34868 ft | 515 kts | 48° |
| 2026-05-07 12:37 | 41.77621 | -18.92942 | 34876 ft | 515 kts | 48° |
| 2026-05-07 12:37 | 41.97231 | -18.65255 | 34880 ft | 513 kts | 48° |
| 2026-05-07 12:38 | 42.16911 | -18.37202 | 34884 ft | 511 kts | 49° |
| 2026-05-07 12:38 | 42.36259 | -18.09351 | 34891 ft | 511 kts | 49° |
| 2026-05-07 12:39 | 42.55717 | -17.81073 | 34902 ft | 511 kts | 50° |
| 2026-05-07 12:39 | 42.75075 | -17.52663 | 34910 ft | 511 kts | 50° |
| 2026-05-07 12:40 | 42.94284 | -17.24188 | 34917 ft | 513 kts | 50° |
| 2026-05-07 12:40 | 43.13551 | -16.95341 | 34924 ft | 516 kts | 50° |
| 2026-05-07 12:41 | 43.32813 | -16.66210 | 34926 ft | 516 kts | 50° |
| 2026-05-07 12:41 | 43.51951 | -16.36974 | 34936 ft | 515 kts | 50° |
| 2026-05-07 12:42 | 43.71154 | -16.07333 | 34941 ft | 516 kts | 50° |
| 2026-05-07 12:42 | 43.90244 | -15.77556 | 34944 ft | 517 kts | 50° |
| 2026-05-07 12:43 | 44.09121 | -15.47803 | 34947 ft | 516 kts | 50° |
| 2026-05-07 12:43 | 44.28036 | -15.17675 | 34957 ft | 515 kts | 50° |
| 2026-05-07 12:44 | 44.46858 | -14.87373 | 34958 ft | 515 kts | 50° |
| 2026-05-07 12:44 | 44.65469 | -14.57088 | 34963 ft | 515 kts | 49° |
| 2026-05-07 12:45 | 44.84128 | -14.26398 | 34966 ft | 514 kts | 49° |
| 2026-05-07 12:45 | 45.02663 | -13.95643 | 34975 ft | 513 kts | 47° |
| 2026-05-07 12:46 | 45.21511 | -13.65530 | 34977 ft | 512 kts | 47° |
| 2026-05-07 12:46 | 45.40263 | -13.35095 | 34981 ft | 510 kts | 47° |
| 2026-05-07 12:47 | 45.58864 | -13.04581 | 34985 ft | 509 kts | 47° |
| 2026-05-07 12:47 | 45.77204 | -12.74161 | 34987 ft | 507 kts | 47° |
| 2026-05-07 12:48 | 45.95569 | -12.43361 | 34987 ft | 506 kts | 47° |
| 2026-05-07 12:48 | 46.13862 | -12.12339 | 34991 ft | 506 kts | 47° |
| 2026-05-07 12:49 | 46.31915 | -11.81379 | 34990 ft | 504 kts | 47° |
| 2026-05-07 12:49 | 46.49885 | -11.50212 | 34990 ft | 502 kts | 46° |
| 2026-05-07 12:50 | 46.67586 | -11.19164 | 34995 ft | 500 kts | 47° |
| 2026-05-07 12:50 | 46.85297 | -10.87745 | 34996 ft | 500 kts | 47° |
| 2026-05-07 12:51 | 47.02951 | -10.56066 | 35013 ft | 501 kts | 48° |
| 2026-05-07 12:51 | 47.20546 | -10.24123 | 35000 ft | 504 kts | 49° |
| 2026-05-07 12:52 | 47.38001 | -9.92061 | 35014 ft | 506 kts | 49° |
| 2026-05-07 12:52 | 47.55567 | -9.59409 | 35007 ft | 507 kts | 50° |
| 2026-05-07 12:53 | 47.73101 | -9.26424 | 35010 ft | 508 kts | 50° |
| 2026-05-07 12:53 | 47.90419 | -8.93449 | 35004 ft | 508 kts | 51° |
| 2026-05-07 12:54 | 48.08445 | -8.60995 | 35003 ft | 506 kts | 45° |
| 2026-05-07 12:54 | 48.27631 | -8.29957 | 35007 ft | 507 kts | 47° |
| 2026-05-07 12:55 | 48.46514 | -7.98697 | 35012 ft | 507 kts | 48° |
| 2026-05-07 12:55 | 48.65454 | -7.66969 | 35015 ft | 507 kts | 49° |
| 2026-05-07 12:56 | 48.84272 | -7.35058 | 35029 ft | 508 kts | 49° |
| 2026-05-07 12:56 | 49.02919 | -7.03051 | 35029 ft | 507 kts | 50° |
| 2026-05-07 12:57 | 49.21483 | -6.70792 | 35034 ft | 505 kts | 50° |
| 2026-05-07 12:57 | 49.39953 | -6.38297 | 35012 ft | 503 kts | 51° |
| 2026-05-07 12:58 | 49.57803 | -6.05513 | 35019 ft | 502 kts | 56° |
| 2026-05-07 12:58 | 49.73980 | -5.70221 | 35010 ft | 502 kts | 55° |
| 2026-05-07 12:59 | 49.90132 | -5.35181 | 35010 ft | 502 kts | 56° |
| 2026-05-07 12:59 | 50.06270 | -4.99682 | 35021 ft | 502 kts | 56° |
| 2026-05-07 13:00 | 50.22300 | -4.63945 | 35028 ft | 502 kts | 56° |
| 2026-05-07 13:00 | 50.38180 | -4.28055 | 35031 ft | 503 kts | 56° |
| 2026-05-07 13:01 | 50.51391 | -3.96189 | 35022 ft | 502 kts | 70° |
| 2026-05-07 13:01 | 50.53155 | -3.85602 | 35029 ft | 500 kts | 80° |
| 2026-05-07 13:02 | 50.54385 | -3.74868 | 35028 ft | 501 kts | 82° |
| 2026-05-07 13:02 | 50.55535 | -3.64047 | 35033 ft | 501 kts | 82° |
| 2026-05-07 13:03 | 50.56689 | -3.53276 | 35034 ft | 502 kts | 81° |
| 2026-05-07 13:03 | 50.57869 | -3.42440 | 35039 ft | 502 kts | 81° |
| 2026-05-07 13:04 | 50.59132 | -3.31627 | 35039 ft | 502 kts | 81° |
| 2026-05-07 13:04 | 50.60401 | -3.20878 | 35039 ft | 502 kts | 81° |
| 2026-05-07 13:05 | 50.61657 | -3.10045 | 35042 ft | 502 kts | 81° |
| 2026-05-07 13:05 | 50.62894 | -2.99219 | 34911 ft | 498 kts | 81° |
| 2026-05-07 13:06 | 50.63504 | -2.93855 | 34173 ft | 498 kts | 81° |
| 2026-05-07 13:06 | 50.64105 | -2.88504 | 33055 ft | 504 kts | 81° |
| 2026-05-07 13:06 | 50.64716 | -2.83037 | 32019 ft | 508 kts | 81° |
| 2026-05-07 13:06 | 50.65330 | -2.77536 | 30998 ft | 510 kts | 81° |
| 2026-05-07 13:07 | 50.65944 | -2.72005 | 29957 ft | 514 kts | 81° |
| 2026-05-07 13:07 | 50.66561 | -2.66439 | 28886 ft | 515 kts | 81° |
| 2026-05-07 13:07 | 50.67166 | -2.60948 | 28074 ft | 512 kts | 81° |
| 2026-05-07 13:07 | 50.67767 | -2.55451 | 27392 ft | 506 kts | 81° |
| 2026-05-07 13:08 | 50.68077 | -2.50029 | 26856 ft | 496 kts | 91° |
| 2026-05-07 13:08 | 50.67937 | -2.44650 | 26583 ft | 485 kts | 95° |
| 2026-05-07 13:08 | 50.67715 | -2.39345 | 26262 ft | 484 kts | 95° |
| 2026-05-07 13:08 | 50.67484 | -2.34045 | 25933 ft | 482 kts | 95° |
| 2026-05-07 13:09 | 50.67254 | -2.28777 | 25614 ft | 480 kts | 95° |
| 2026-05-07 13:09 | 50.67028 | -2.23601 | 25301 ft | 478 kts | 95° |
| 2026-05-07 13:09 | 50.66798 | -2.18371 | 24978 ft | 476 kts | 95° |
| 2026-05-07 13:09 | 50.66568 | -2.13172 | 24655 ft | 473 kts | 95° |
| 2026-05-07 13:10 | 50.66338 | -2.08009 | 24343 ft | 471 kts | 95° |
| 2026-05-07 13:10 | 50.66141 | -2.02862 | 24056 ft | 468 kts | 92° |
| 2026-05-07 13:10 | 50.66142 | -1.97726 | 23827 ft | 467 kts | 90° |
| 2026-05-07 13:10 | 50.66205 | -1.92675 | 23583 ft | 466 kts | 90° |
| 2026-05-07 13:11 | 50.66271 | -1.87567 | 23318 ft | 464 kts | 90° |
| 2026-05-07 13:11 | 50.66333 | -1.82471 | 23020 ft | 463 kts | 90° |
| 2026-05-07 13:11 | 50.66390 | -1.77408 | 22743 ft | 461 kts | 90° |
| 2026-05-07 13:11 | 50.66445 | -1.72340 | 22473 ft | 459 kts | 90° |
| 2026-05-07 13:12 | 50.66497 | -1.67360 | 22202 ft | 457 kts | 90° |
| 2026-05-07 13:12 | 50.66546 | -1.62388 | 21799 ft | 448 kts | 90° |
| 2026-05-07 13:12 | 50.66700 | -1.57502 | 21289 ft | 442 kts | 84° |
| 2026-05-07 13:12 | 50.67356 | -1.52852 | 20797 ft | 438 kts | 71° |
| 2026-05-07 13:13 | 50.68556 | -1.48393 | 20330 ft | 444 kts | 65° |
| 2026-05-07 13:13 | 50.69920 | -1.43991 | 19823 ft | 445 kts | 64° |
| 2026-05-07 13:13 | 50.71288 | -1.39622 | 19346 ft | 442 kts | 64° |
| 2026-05-07 13:13 | 50.72644 | -1.35270 | 18873 ft | 438 kts | 64° |
| 2026-05-07 13:14 | 50.73963 | -1.31010 | 18399 ft | 435 kts | 64° |
| 2026-05-07 13:14 | 50.75327 | -1.26763 | 17897 ft | 432 kts | 60° |
| 2026-05-07 13:14 | 50.77142 | -1.23020 | 17418 ft | 429 kts | 44° |
| 2026-05-07 13:14 | 50.79493 | -1.20148 | 16953 ft | 424 kts | 33° |
| 2026-05-07 13:15 | 50.81957 | -1.17610 | 16494 ft | 422 kts | 32° |
| 2026-05-07 13:15 | 50.84419 | -1.15107 | 16050 ft | 419 kts | 33° |
| 2026-05-07 13:15 | 50.86870 | -1.12599 | 15580 ft | 416 kts | 33° |
| 2026-05-07 13:15 | 50.89290 | -1.10111 | 15123 ft | 413 kts | 33° |
| 2026-05-07 13:16 | 50.91656 | -1.07669 | 14690 ft | 409 kts | 33° |
| 2026-05-07 13:16 | 50.94032 | -1.05210 | 14244 ft | 406 kts | 33° |
| 2026-05-07 13:16 | 50.96380 | -1.02775 | 13801 ft | 402 kts | 34° |
| 2026-05-07 13:16 | 50.98721 | -1.00346 | 13332 ft | 400 kts | 34° |
| 2026-05-07 13:17 | 51.01162 | -0.98240 | 12902 ft | 398 kts | 22° |
| 2026-05-07 13:17 | 51.03739 | -0.96840 | 12674 ft | 383 kts | 17° |
| 2026-05-07 13:17 | 51.06242 | -0.95625 | 12447 ft | 369 kts | 17° |
| 2026-05-07 13:17 | 51.08623 | -0.94474 | 12233 ft | 356 kts | 17° |
| 2026-05-07 13:18 | 51.10950 | -0.93344 | 12045 ft | 343 kts | 17° |
| 2026-05-07 13:18 | 51.13198 | -0.92246 | 11844 ft | 330 kts | 17° |
| 2026-05-07 13:18 | 51.15357 | -0.91188 | 11672 ft | 319 kts | 18° |
| 2026-05-07 13:18 | 51.17441 | -0.90166 | 11459 ft | 308 kts | 17° |
| 2026-05-07 13:19 | 51.19455 | -0.89178 | 11292 ft | 297 kts | 18° |
| 2026-05-07 13:19 | 51.21397 | -0.88222 | 11136 ft | 286 kts | 18° |
| 2026-05-07 13:19 | 51.23262 | -0.87304 | 10975 ft | 275 kts | 18° |
| 2026-05-07 13:19 | 51.24456 | -0.86715 | 10876 ft | 267 kts | 18° |
| 2026-05-07 13:20 | 51.26753 | -0.85581 | 10685 ft | 252 kts | 18° |
| 2026-05-07 13:20 | 51.28384 | -0.84775 | 10592 ft | 238 kts | 18° |
| 2026-05-07 13:20 | 51.29416 | -0.84265 | 10504 ft | 230 kts | 18° |
| 2026-05-07 13:20 | 51.30927 | -0.83517 | 10249 ft | 224 kts | 18° |
| 2026-05-07 13:21 | 51.32893 | -0.82543 | 9847 ft | 220 kts | 18° |
| 2026-05-07 13:21 | 51.33881 | -0.82053 | 9581 ft | 220 kts | 18° |
| 2026-05-07 13:21 | 51.35347 | -0.81326 | 9112 ft | 222 kts | 18° |
| 2026-05-07 13:21 | 51.36814 | -0.80598 | 8648 ft | 224 kts | 17° |
| 2026-05-07 13:22 | 51.38315 | -0.79852 | 8188 ft | 227 kts | 17° |
| 2026-05-07 13:22 | 51.39838 | -0.79096 | 7697 ft | 230 kts | 17° |
| 2026-05-07 13:22 | 51.41357 | -0.78341 | 7252 ft | 226 kts | 17° |
| 2026-05-07 13:22 | 51.42845 | -0.77602 | 6714 ft | 223 kts | 17° |
| 2026-05-07 13:23 | 51.44332 | -0.76862 | 6113 ft | 222 kts | 16° |
| 2026-05-07 13:23 | 51.45800 | -0.76119 | 5531 ft | 221 kts | 17° |
| 2026-05-07 13:23 | 51.47043 | -0.74778 | 4922 ft | 220 kts | 52° |
| 2026-05-07 13:23 | 51.47670 | -0.72591 | 4276 ft | 214 kts | 77° |
| 2026-05-07 13:24 | 51.47708 | -0.70244 | 3642 ft | 208 kts | 95° |
| 2026-05-07 13:24 | 51.47609 | -0.67943 | 3003 ft | 205 kts | 92° |
| 2026-05-07 13:24 | 51.47604 | -0.65667 | 2390 ft | 202 kts | 88° |
| 2026-05-07 13:24 | 51.47639 | -0.63477 | 2005 ft | 190 kts | 89° |
| 2026-05-07 13:25 | 51.47647 | -0.61439 | 1747 ft | 180 kts | 90° |
| 2026-05-07 13:25 | 51.47656 | -0.59490 | 1491 ft | 169 kts | 89° |
| 2026-05-07 13:25 | 51.47675 | -0.57649 | 1225 ft | 161 kts | 88° |
| 2026-05-07 13:25 | 51.47710 | -0.55898 | 1025 ft | 153 kts | 88° |
| 2026-05-07 13:26 | 51.47734 | -0.54215 | 827 ft | 149 kts | 89° |
| 2026-05-07 13:26 | 51.47748 | -0.52543 | 610 ft | 147 kts | 91° |
| 2026-05-07 13:26 | 51.47753 | -0.50935 | 418 ft | 142 kts | 91° |
| 2026-05-07 13:26 | 51.47758 | -0.49361 | 219 ft | 143 kts | 91° |
| 2026-05-07 13:27 | 51.47758 | -0.47794 | 93 ft | 134 kts | 92° |
| 2026-05-07 13:27 | 51.47755 | -0.46501 | 101 ft | 96 kts | 91° |
| 2026-05-07 13:27 | 51.47760 | -0.45866 | 91 ft | 33 kts | 89° |
| 2026-05-07 13:27 | 51.47748 | -0.45519 | 92 ft | 26 kts | 115° |
| 2026-05-07 13:28 | 51.47644 | -0.45471 | 90 ft | 10 kts | 185° |
| 2026-05-07 13:28 | 51.47592 | -0.45470 | 94 ft | 7 kts | 178° |
| 2026-05-07 13:28 | 51.47575 | -0.45471 | 92 ft | 2 kts | 183° |
| 2026-05-07 13:28 | 51.47544 | -0.45474 | 95 ft | 7 kts | 183° |
| 2026-05-07 13:29 | 51.47518 | -0.45519 | 94 ft | 7 kts | 244° |
| 2026-05-07 13:29 | 51.47511 | -0.45606 | 94 ft | 9 kts | 268° |
| 2026-05-07 13:29 | 51.47515 | -0.45725 | 91 ft | 12 kts | 273° |
| 2026-05-07 13:29 | 51.47517 | -0.45880 | 94 ft | 15 kts | 271° |
| 2026-05-07 13:30 | 51.47517 | -0.46065 | 94 ft | 18 kts | 269° |
| 2026-05-07 13:30 | 51.47516 | -0.46280 | 92 ft | 20 kts | 269° |
| 2026-05-07 13:30 | 51.47515 | -0.46516 | 94 ft | 22 kts | 271° |
| 2026-05-07 13:30 | 51.47496 | -0.46726 | 95 ft | 14 kts | 225° |
| 2026-05-07 13:31 | 51.47395 | -0.46732 | 91 ft | 16 kts | 172° |
| 2026-05-07 13:31 | 51.47275 | -0.46725 | 92 ft | 18 kts | 180° |
| 2026-05-07 13:31 | 51.47140 | -0.46723 | 91 ft | 20 kts | 179° |
| 2026-05-07 13:31 | 51.47028 | -0.46695 | 95 ft | 11 kts | 150° |
| 2026-05-07 13:32 | 51.46986 | -0.46627 | 95 ft | 5 kts | 100° |
| 2026-05-07 13:32 | 51.47005 | -0.46569 | 95 ft | 7 kts | 57° |
| 2026-05-07 13:32 | 51.47016 | -0.46542 | 95 ft | 0 kts | 56° |
| 2026-05-07 13:32 | 51.47017 | -0.46540 | 95 ft | 1 kts | 56° |
| 2026-05-07 13:33 | 51.47017 | -0.46539 | 95 ft | 0 kts | 56° |